createdAt,value
2022-10-15T00:01:51.857Z,15.30
2022-10-15T00:06:53.583Z,15.20
2022-10-15T00:11:55.351Z,15.90
2022-10-15T00:21:59.218Z,15.20
2022-10-15T00:27:00.876Z,15.20
2022-10-15T00:42:07.144Z,15.20
2022-10-15T00:47:28.211Z,15.30
2022-10-15T00:52:41.422Z,15.40
2022-10-15T00:57:44.174Z,15.40
2022-10-15T01:02:46.407Z,15.40
2022-10-15T01:07:48.086Z,15.40
2022-10-15T01:13:25.373Z,15.90
2022-10-15T01:18:54.142Z,15.40
2022-10-15T01:24:16.553Z,15.30
2022-10-15T01:29:56.977Z,15.30
2022-10-15T01:35:33.333Z,15.40
2022-10-15T01:41:04.864Z,15.30
2022-10-15T01:46:11.077Z,15.30
2022-10-15T01:51:15.127Z,15.30
2022-10-15T01:56:21.170Z,15.30
2022-10-15T02:01:23.039Z,15.50
2022-10-15T02:06:39.469Z,15.40
2022-10-15T02:11:50.201Z,15.40
2022-10-15T02:17:03.167Z,15.40
2022-10-15T02:22:24.368Z,15.50
2022-10-15T02:27:28.020Z,15.50
2022-10-15T02:32:31.672Z,15.60
2022-10-15T02:37:35.563Z,15.70
2022-10-15T02:42:37.651Z,15.70
2022-10-15T02:47:39.290Z,15.50
2022-10-15T02:52:40.916Z,15.60
2022-10-15T02:57:42.587Z,15.60
2022-10-15T03:12:48.976Z,16.30
2022-10-15T03:22:52.725Z,15.50
2022-10-15T03:27:54.421Z,16.10
2022-10-15T03:32:56.054Z,15.50
2022-10-15T03:37:57.837Z,15.50
2022-10-15T03:42:59.511Z,16.30
2022-10-15T03:48:01.194Z,15.50
2022-10-15T03:53:05.066Z,15.60
2022-10-15T03:58:06.911Z,15.70
2022-10-15T04:03:08.647Z,15.50
2022-10-15T04:08:10.338Z,15.60
2022-10-15T04:13:12.032Z,15.60
2022-10-15T04:18:14.196Z,15.70
2022-10-15T04:23:17.505Z,15.60
2022-10-15T04:28:19.241Z,15.60
2022-10-15T04:33:20.961Z,15.60
2022-10-15T04:38:22.629Z,15.70
2022-10-15T04:48:29.218Z,15.60
2022-10-15T04:53:31.489Z,15.60
2022-10-15T04:58:35.021Z,15.50
2022-10-15T05:03:38.700Z,15.50
2022-10-15T05:08:43.411Z,15.40
2022-10-15T05:13:45.603Z,15.60
2022-10-15T05:18:49.889Z,15.60
2022-10-15T05:23:52.226Z,15.60
2022-10-15T05:33:56.385Z,15.70
2022-10-15T05:39:00.024Z,16.30
2022-10-15T05:44:01.705Z,15.70
2022-10-15T05:49:03.619Z,15.70
2022-10-15T05:54:05.331Z,15.70
2022-10-15T06:04:09.522Z,15.70
2022-10-15T06:09:11.162Z,15.80
2022-10-15T06:14:12.883Z,15.70
2022-10-15T06:19:15.212Z,15.90
2022-10-15T06:24:16.988Z,15.80
2022-10-15T06:34:20.780Z,15.80
2022-10-15T06:39:22.464Z,15.90
2022-10-15T06:44:24.799Z,15.80
2022-10-15T06:49:26.439Z,15.90
2022-10-15T06:54:28.103Z,16.20
2022-10-15T06:59:29.887Z,15.90
2022-10-15T07:04:31.570Z,16.00
2022-10-15T07:19:44.138Z,15.90
2022-10-15T07:24:45.955Z,15.90
2022-10-15T07:29:47.655Z,15.90
2022-10-15T07:34:49.322Z,15.90
2022-10-15T07:39:50.956Z,15.90
2022-10-15T07:44:52.741Z,17.50
2022-10-15T07:54:56.947Z,16.10
2022-10-15T07:59:58.981Z,16.20
2022-10-15T08:05:00.666Z,17.10
2022-10-15T08:15:04.886Z,16.50
2022-10-15T08:20:06.945Z,16.50
2022-10-15T08:25:09.215Z,16.40
2022-10-15T08:30:11.227Z,16.50
2022-10-15T08:35:13.016Z,16.70
2022-10-15T08:40:16.101Z,16.70
2022-10-15T08:45:23.929Z,16.80
2022-10-15T08:50:34.717Z,16.80
2022-10-15T08:55:40.563Z,16.80
2022-10-15T09:01:06.741Z,16.70
2022-10-15T09:06:21.439Z,16.70
2022-10-15T09:11:26.034Z,16.60
2022-10-15T09:16:38.543Z,17.00
2022-10-15T09:21:41.043Z,16.40
2022-10-15T09:27:09.679Z,16.10
2022-10-15T09:32:34.379Z,16.10
2022-10-15T09:38:05.986Z,16.20
2022-10-15T09:43:10.227Z,16.30
2022-10-15T09:48:18.655Z,16.40
2022-10-15T09:53:35.494Z,16.60
2022-10-15T09:58:51.352Z,16.50
2022-10-15T10:04:19.296Z,16.60
2022-10-15T10:09:24.987Z,16.60
2022-10-15T10:14:33.156Z,16.70
2022-10-15T10:19:34.828Z,16.90
2022-10-15T10:24:36.483Z,16.80
2022-10-15T10:29:45.347Z,17.00
2022-10-15T10:34:52.438Z,17.20
2022-10-15T10:40:00.320Z,17.00
2022-10-15T10:45:21.258Z,17.90
2022-10-15T10:50:27.422Z,17.20
2022-10-15T10:55:38.629Z,17.20
2022-10-15T11:00:44.137Z,17.20
2022-10-15T11:05:46.591Z,17.10
2022-10-15T11:11:12.184Z,17.20
2022-10-15T11:16:40.688Z,17.30
2022-10-15T11:21:51.264Z,17.30
2022-10-15T11:27:10.909Z,17.30
2022-10-15T11:33:05.520Z,17.10
2022-10-15T11:38:22.392Z,17.30
2022-10-15T11:43:29.914Z,18.00
2022-10-15T11:49:01.679Z,17.90
2022-10-15T11:54:16.283Z,17.80
2022-10-15T11:59:29.068Z,17.30
2022-10-15T12:04:48.679Z,18.10
2022-10-15T12:09:54.515Z,18.10
2022-10-15T12:15:13.891Z,18.20
2022-10-15T12:20:19.381Z,21.20
2022-10-15T12:25:50.585Z,21.10
2022-10-15T12:30:56.821Z,20.40
2022-10-15T12:36:01.252Z,19.80
2022-10-15T12:41:06.886Z,19.40
2022-10-15T12:46:10.889Z,18.90
2022-10-15T12:51:24.454Z,18.50
2022-10-15T12:56:44.247Z,18.30
2022-10-15T13:01:45.841Z,18.20
2022-10-15T13:06:47.759Z,18.00
2022-10-15T13:11:52.972Z,18.00
2022-10-15T13:16:55.193Z,18.30
2022-10-15T13:22:02.001Z,18.60
2022-10-15T13:27:05.595Z,19.00
2022-10-15T13:32:14.035Z,19.10
2022-10-15T13:37:19.929Z,19.20
2022-10-15T13:42:24.153Z,18.70
2022-10-15T13:47:38.074Z,18.70
2022-10-15T13:52:45.967Z,18.50
2022-10-15T13:57:50.005Z,18.50
2022-10-15T14:03:15.274Z,17.70
2022-10-15T14:08:23.875Z,17.60
2022-10-15T14:13:27.480Z,17.50
2022-10-15T14:18:36.292Z,17.70
2022-10-15T14:23:38.634Z,17.30
2022-10-15T14:28:41.330Z,17.10
2022-10-15T14:33:44.457Z,17.00
2022-10-15T14:38:46.367Z,17.00
2022-10-15T14:44:00.850Z,17.10
2022-10-15T14:49:02.883Z,17.10
2022-10-15T14:54:04.623Z,17.20
2022-10-15T14:59:09.018Z,17.20
2022-10-15T15:04:34.900Z,17.10
2022-10-15T15:09:36.580Z,17.20
2022-10-15T15:14:38.266Z,17.00
2022-10-15T15:19:43.729Z,18.00
2022-10-15T15:24:45.688Z,17.10
2022-10-15T15:29:49.740Z,17.10
2022-10-15T15:34:54.903Z,17.10
2022-10-15T15:39:56.560Z,17.10
2022-10-15T15:44:58.312Z,17.10
2022-10-15T15:49:59.978Z,17.10
2022-10-15T15:55:01.740Z,17.10
2022-10-15T16:00:06.112Z,17.10
2022-10-15T16:05:09.380Z,17.00
2022-10-15T16:10:12.539Z,20.60
2022-10-15T16:15:15.401Z,17.00
2022-10-15T16:20:17.482Z,16.90
2022-10-15T16:25:20.728Z,16.80
2022-10-15T16:30:22.637Z,16.70
2022-10-15T16:35:24.418Z,16.60
2022-10-15T16:40:26.064Z,16.60
2022-10-15T16:45:27.748Z,16.50
2022-10-15T16:50:29.409Z,16.90
2022-10-15T16:55:32.379Z,16.30
2022-10-15T17:00:34.129Z,16.30
2022-10-15T17:10:42.870Z,16.10
2022-10-15T17:15:44.539Z,16.70
2022-10-15T17:20:47.596Z,16.00
2022-10-15T17:25:49.240Z,16.00
2022-10-15T17:30:50.987Z,16.00
2022-10-15T17:40:54.824Z,16.10
2022-10-15T17:46:05.273Z,16.20
2022-10-15T17:51:10.333Z,16.20
2022-10-15T17:56:14.424Z,16.10
2022-10-15T18:01:28.003Z,16.10
2022-10-15T18:06:44.735Z,16.20
2022-10-15T18:11:48.144Z,16.40
2022-10-15T18:16:49.885Z,16.30
2022-10-15T18:21:51.546Z,16.20
2022-10-15T18:26:53.387Z,16.30
2022-10-15T18:31:58.019Z,16.30
2022-10-15T18:37:00.011Z,16.30
2022-10-15T18:42:01.716Z,16.30
2022-10-15T18:57:54.584Z,16.10
2022-10-15T19:02:56.939Z,16.20
2022-10-15T19:13:03.717Z,16.20
2022-10-15T19:18:10.976Z,16.10
2022-10-15T19:23:12.864Z,16.10
2022-10-15T19:43:23.209Z,16.10
2022-10-15T19:58:29.587Z,16.00
2022-10-15T20:03:31.357Z,16.00
2022-10-15T20:08:33.625Z,16.10
2022-10-15T20:13:39.889Z,15.90
2022-10-15T20:18:42.258Z,15.90
2022-10-15T20:23:44.897Z,15.90
2022-10-15T20:28:46.992Z,15.80
2022-10-15T20:33:48.957Z,16.10
2022-10-15T20:38:51.722Z,15.70
2022-10-15T20:43:55.194Z,15.80
2022-10-15T20:49:03.308Z,15.70
2022-10-15T20:54:08.884Z,15.90
2022-10-15T20:59:10.848Z,17.70
2022-10-15T21:04:12.521Z,16.00
2022-10-15T21:09:14.608Z,15.80
2022-10-15T21:14:16.310Z,15.90
2022-10-15T21:19:18.261Z,15.80
2022-10-15T21:24:20.147Z,15.70
2022-10-15T21:29:22.744Z,16.40
2022-10-15T21:44:31.720Z,15.80
2022-10-15T21:49:33.454Z,15.80
2022-10-15T21:54:35.219Z,15.70
2022-10-15T21:59:36.868Z,16.00
2022-10-15T22:09:40.904Z,15.70
2022-10-15T22:14:42.801Z,16.20
2022-10-15T22:34:55.151Z,15.60
2022-10-15T22:44:59.383Z,15.70
2022-10-15T22:55:04.050Z,16.70
2022-10-15T23:00:06.371Z,15.60
2022-10-15T23:05:08.260Z,15.60
2022-10-15T23:10:11.003Z,15.60
2022-10-15T23:15:12.862Z,15.60
2022-10-15T23:20:14.579Z,15.50
2022-10-15T23:30:24.762Z,15.50
2022-10-15T23:35:27.015Z,15.60
2022-10-15T23:40:30.394Z,14.10
2022-10-15T23:50:36.968Z,15.70
2022-10-15T23:55:40.146Z,15.60
